Time;durP1;ratioP1;P1;durP2;ratioP2;P2;SDS_P1;SDS_P2;PMS_P1;PMS_P2;Temp;Humidity;BMP_temperature;BMP_pressure;BME280_temperature;BME280_humidity;BME280_pressure;Samples;Min_cycle;Max_cycle;Signal;HPM_P1;HPM_P2
2023/10/16 00:01:20;;;;;;;5.27;1.60;;;;;;;6.42;82.18;101437.25;5073186;28;20194;-73
2023/10/16 00:03:49;;;;;;;7.80;1.70;;;;;;;6.44;82.30;101431.78;5073870;28;20251;-73
2023/10/16 00:06:18;;;;;;;4.17;1.83;;;;;;;6.39;82.34;101429.50;5073107;28;20261;-73
2023/10/16 00:08:53;;;;;;;4.20;1.67;;;;;;;6.37;82.94;101427.94;5072718;28;20202;-73
2023/10/16 00:11:24;;;;;;;5.00;1.60;;;;;;;6.31;82.72;101434.53;5073059;28;20276;-73
2023/10/16 00:13:56;;;;;;;5.70;2.00;;;;;;;6.28;82.78;101434.78;5072743;28;20196;-73
2023/10/16 00:16:28;;;;;;;5.53;1.80;;;;;;;6.19;83.42;101429.31;5072889;28;20210;-73
2023/10/16 00:19:00;;;;;;;4.13;2.00;;;;;;;6.28;82.88;101421.47;5074503;28;20243;-73
2023/10/16 00:21:30;;;;;;;5.70;1.53;;;;;;;6.34;82.92;101430.78;5076358;28;20225;-74
2023/10/16 00:23:59;;;;;;;7.87;1.77;;;;;;;6.35;82.22;101430.69;5076454;28;20217;-73
2023/10/16 00:26:30;;;;;;;9.73;1.73;;;;;;;6.20;82.98;101426.50;5076507;28;20278;-74
2023/10/16 00:29:16;;;;;;;4.70;1.77;;;;;;;6.23;83.50;101433.44;5076493;28;20292;-74
2023/10/16 00:31:51;;;;;;;5.40;2.00;;;;;;;6.10;84.17;101434.34;5076476;28;20189;-73
2023/10/16 00:34:20;;;;;;;6.10;1.90;;;;;;;6.10;84.05;101436.16;5076433;28;20295;-73
2023/10/16 00:36:51;;;;;;;5.90;1.93;;;;;;;6.10;84.31;101425.50;5076348;28;20275;-73
2023/10/16 00:39:20;;;;;;;3.37;1.87;;;;;;;6.14;84.34;101421.66;5076055;28;20601;-73
2023/10/16 00:41:50;;;;;;;4.37;1.57;;;;;;;6.09;84.52;101416.72;5076389;28;20213;-73
2023/10/16 00:44:18;;;;;;;5.77;1.50;;;;;;;6.08;84.19;101422.13;5076162;28;20233;-72
2023/10/16 00:46:49;;;;;;;5.63;1.93;;;;;;;6.08;84.41;101419.47;5076210;28;20247;-73
2023/10/16 00:49:19;;;;;;;6.73;2.00;;;;;;;6.08;84.39;101423.00;5075888;28;20658;-73
2023/10/16 00:51:49;;;;;;;4.30;1.70;;;;;;;5.98;84.62;101421.13;5075797;28;20223;-74
2023/10/16 00:54:28;;;;;;;4.97;1.80;;;;;;;6.02;84.55;101422.59;5077015;28;20631;-73
2023/10/16 00:56:59;;;;;;;3.80;1.50;;;;;;;6.05;83.79;101417.06;5076003;28;20217;-74
2023/10/16 00:59:28;;;;;;;5.77;1.87;;;;;;;5.98;84.35;101418.47;5076207;28;20607;-74
2023/10/16 01:02:07;;;;;;;4.83;1.80;;;;;;;6.06;84.54;101426.72;5075932;28;20201;-74
2023/10/16 01:04:37;;;;;;;4.90;1.60;;;;;;;6.05;84.10;101417.06;5075529;28;20244;-74
2023/10/16 01:07:06;;;;;;;6.67;2.10;;;;;;;5.96;85.00;101415.06;5075816;28;20201;-73
2023/10/16 01:09:35;;;;;;;9.27;1.93;;;;;;;6.03;84.23;101419.81;5075759;28;20292;-73
2023/10/16 01:12:11;;;;;;;6.57;1.93;;;;;;;6.07;84.23;101415.13;5075746;28;20209;-73
2023/10/16 01:14:40;;;;;;;6.30;1.80;;;;;;;5.97;84.61;101408.78;5075616;28;20224;-73
2023/10/16 01:17:10;;;;;;;7.10;2.40;;;;;;;5.95;84.98;101413.38;5075590;28;20221;-73
2023/10/16 01:19:42;;;;;;;4.33;1.93;;;;;;;5.97;85.11;101419.41;5075616;28;20194;-74
2023/10/16 01:22:11;;;;;;;4.80;1.83;;;;;;;6.01;84.79;101420.91;5075584;28;20197;-73
2023/10/16 01:24:45;;;;;;;8.57;2.00;;;;;;;6.01;84.75;101421.75;5075415;28;20221;-74
2023/10/16 01:27:26;;;;;;;5.77;2.10;;;;;;;6.04;84.51;101420.66;5075476;28;20182;-74
2023/10/16 01:29:57;;;;;;;4.87;1.70;;;;;;;6.12;83.88;101428.91;5074276;28;20288;-74
2023/10/16 01:32:27;;;;;;;5.10;1.90;;;;;;;5.93;84.93;101424.13;5075352;28;20224;-74
2023/10/16 01:34:56;;;;;;;4.73;1.87;;;;;;;5.95;85.18;101418.69;5075247;28;20240;-73
2023/10/16 01:37:25;;;;;;;4.67;1.63;;;;;;;5.98;84.40;101426.44;5075190;28;20332;-73
2023/10/16 01:40:15;;;;;;;4.90;2.33;;;;;;;5.98;85.01;101421.13;5075250;28;20251;-74
2023/10/16 01:42:43;;;;;;;5.30;1.70;;;;;;;5.99;84.62;101412.19;5075193;28;20247;-74
2023/10/16 01:45:14;;;;;;;5.23;1.83;;;;;;;5.99;85.01;101410.38;5075048;28;20233;-74
2023/10/16 01:47:43;;;;;;;6.67;1.93;;;;;;;6.02;84.63;101407.50;5076415;28;20201;-74
2023/10/16 01:50:21;;;;;;;7.30;2.20;;;;;;;6.07;84.43;101404.47;5074785;28;20304;-74
2023/10/16 01:52:50;;;;;;;5.63;1.70;;;;;;;6.13;83.59;101410.19;5074647;28;20667;-74
2023/10/16 01:55:21;;;;;;;6.03;1.73;;;;;;;6.13;83.98;101409.31;5074810;28;20252;-72
2023/10/16 01:57:50;;;;;;;5.67;1.60;;;;;;;6.10;83.70;101404.25;5074740;28;20209;-72
2023/10/16 02:00:24;;;;;;;6.10;1.90;;;;;;;6.11;84.20;101405.94;5074734;28;20209;-74
2023/10/16 02:02:54;;;;;;;6.47;1.93;;;;;;;6.11;83.63;101403.28;5074475;28;20711;-74
2023/10/16 02:05:23;;;;;;;11.37;2.10;;;;;;;6.15;83.69;101407.41;5074589;28;20257;-73
2023/10/16 02:07:56;;;;;;;4.70;1.67;;;;;;;6.08;83.46;101396.41;5074329;28;20741;-73
2023/10/16 02:10:26;;;;;;;4.93;1.73;;;;;;;6.09;84.27;101398.09;5074625;28;20189;-74
2023/10/16 02:12:54;;;;;;;5.43;1.80;;;;;;;6.09;84.06;101397.25;5074527;28;20292;-74
2023/10/16 02:15:23;;;;;;;6.53;1.90;;;;;;;6.08;83.21;101395.56;5074373;28;20228;-73
2023/10/16 02:17:53;;;;;;;5.13;2.00;;;;;;;6.11;83.88;101400.63;5074329;28;20316;-73
2023/10/16 02:20:26;;;;;;;3.07;1.50;;;;;;;6.11;83.80;101400.63;5074388;28;20259;-73
2023/10/16 02:22:55;;;;;;;5.07;1.73;;;;;;;6.08;83.16;101403.53;5074082;28;20225;-73
2023/10/16 02:25:25;;;;;;;4.63;1.70;;;;;;;6.00;82.92;101403.25;5074121;28;20236;-73
2023/10/16 02:27:54;;;;;;;4.60;1.57;;;;;;;6.03;83.50;101408.31;5075287;28;20231;-73
2023/10/16 02:30:35;;;;;;;6.93;1.90;;;;;;;5.98;83.30;101399.88;5074178;28;20212;-73
2023/10/16 02:33:14;;;;;;;4.73;1.80;;;;;;;5.94;84.27;101393.94;5074235;28;20189;-74
2023/10/16 02:35:47;;;;;;;4.90;1.40;;;;;;;5.93;84.71;101397.53;5073776;28;20229;-74
2023/10/16 02:38:23;;;;;;;5.40;1.97;;;;;;;5.93;84.76;101397.53;5074858;28;20220;-72
2023/10/16 02:40:54;;;;;;;5.37;1.40;;;;;;;5.84;85.30;101392.03;5075322;28;20190;-73
2023/10/16 02:43:23;;;;;;;3.60;1.50;;;;;;;5.78;86.54;101392.50;5074189;28;20722;-73
2023/10/16 02:45:55;;;;;;;3.00;1.60;;;;;;;5.81;86.47;101386.94;5074201;28;20781;-74
2023/10/16 02:48:25;;;;;;;4.77;1.90;;;;;;;5.80;86.61;101388.75;5074217;28;20190;-73
2023/10/16 02:50:56;;;;;;;6.03;1.93;;;;;;;5.74;87.13;101383.06;5073998;28;20290;-73
2023/10/16 02:53:27;;;;;;;4.20;1.67;;;;;;;5.75;87.34;101388.28;5073924;28;20194;-74
2023/10/16 02:56:05;;;;;;;9.33;1.90;;;;;;;5.72;87.66;101383.16;5073414;28;20669;-73
2023/10/16 02:58:34;;;;;;;6.30;1.80;;;;;;;5.73;87.68;101384.84;5073753;28;20300;-73
2023/10/16 03:01:07;;;;;;;5.50;1.73;;;;;;;5.70;88.27;101378.94;5073741;28;20207;-73
2023/10/16 03:03:35;;;;;;;9.40;2.23;;;;;;;5.61;88.31;101383.97;5073441;28;20709;-73
2023/10/16 03:06:04;;;;;;;7.63;2.03;;;;;;;5.70;88.19;101389.56;5073578;28;20225;-73
2023/10/16 03:08:32;;;;;;;3.20;1.47;;;;;;;5.66;88.29;101383.63;5073654;28;20292;-73
2023/10/16 03:11:06;;;;;;;4.93;1.80;;;;;;;5.66;88.63;101390.72;5073287;28;20550;-72
2023/10/16 03:13:35;;;;;;;7.83;2.47;;;;;;;5.71;88.36;101391.25;5073304;28;20228;-72
2023/10/16 03:16:07;;;;;;;4.97;1.90;;;;;;;5.73;88.31;101394.63;5073175;28;20734;-73
2023/10/16 03:18:42;;;;;;;6.97;1.97;;;;;;;5.71;88.29;101399.22;5073193;28;20683;-73
2023/10/16 03:24:09;;;;;;;5.90;1.70;;;;;;;5.68;88.57;101397.66;5091578;28;20554;-73
2023/10/16 03:26:42;;;;;;;10.23;2.10;;;;;;;5.62;89.15;101398.94;5090906;28;20234;-75
2023/10/16 03:29:11;;;;;;;5.80;1.87;;;;;;;5.68;88.96;101394.16;5090744;28;20674;-74
2023/10/16 03:31:39;;;;;;;7.17;2.20;;;;;;;5.70;88.57;101400.19;5090946;28;20243;-75
2023/10/16 03:34:11;;;;;;;5.60;1.87;;;;;;;5.68;88.39;101404.78;5090895;28;20274;-74
2023/10/16 03:36:41;;;;;;;8.00;2.27;;;;;;;5.71;88.27;101396.56;5090924;28;20193;-74
2023/10/16 03:39:16;;;;;;;5.27;1.73;;;;;;;5.72;88.67;101400.94;5090798;28;20215;-74
2023/10/16 03:41:44;;;;;;;8.60;2.03;;;;;;;5.69;89.07;101399.31;5090800;28;20196;-74
2023/10/16 03:44:17;;;;;;;8.03;2.00;;;;;;;5.67;88.52;101405.72;5090297;28;20609;-73
2023/10/16 03:46:46;;;;;;;7.13;1.90;;;;;;;5.69;88.81;101398.47;5090689;28;20189;-73
2023/10/16 03:49:15;;;;;;;8.07;2.13;;;;;;;5.66;88.66;101393.38;5090292;28;20678;-74
2023/10/16 03:51:46;;;;;;;4.70;1.93;;;;;;;5.58;89.19;101397.44;5090574;28;20209;-74
2023/10/16 03:54:23;;;;;;;4.80;2.00;;;;;;;5.57;89.17;101400.25;5090483;28;20228;-73
2023/10/16 03:56:53;;;;;;;7.47;2.00;;;;;;;5.63;88.69;101399.78;5090493;28;20192;-73
2023/10/16 03:59:20;;;;;;;5.43;2.10;;;;;;;5.67;88.48;101398.59;5090084;28;20212;-73
2023/10/16 04:01:49;;;;;;;7.30;2.30;;;;;;;5.57;88.87;101395.78;5090050;28;20304;-73
2023/10/16 04:04:18;;;;;;;8.30;2.50;;;;;;;5.48;88.99;101404.41;5089881;28;20764;-72
2023/10/16 04:06:48;;;;;;;6.53;2.37;;;;;;;5.44;89.64;101402.09;5090036;28;20209;-74
2023/10/16 04:09:19;;;;;;;7.13;2.30;;;;;;;5.43;89.59;101401.25;5089936;28;20582;-74
2023/10/16 04:11:54;;;;;;;8.70;2.00;;;;;;;5.45;89.69;101401.97;5090155;28;20205;-74
2023/10/16 04:14:44;;;;;;;7.60;2.00;;;;;;;5.51;89.24;101396.19;5090098;28;20220;-73
2023/10/16 04:17:13;;;;;;;8.03;2.23;;;;;;;5.49;89.56;101400.78;5089800;28;20678;-73
2023/10/16 04:19:52;;;;;;;5.97;2.10;;;;;;;5.41;89.75;101397.00;5090052;28;20254;-73
2023/10/16 04:22:24;;;;;;;10.03;2.57;;;;;;;5.45;89.89;101394.00;5089765;28;20216;-73
2023/10/16 04:24:54;;;;;;;7.07;1.93;;;;;;;5.47;89.85;101389.44;5089567;28;20768;-72
2023/10/16 04:27:34;;;;;;;6.77;2.30;;;;;;;5.48;90.16;101388.47;5089910;28;20201;-72
2023/10/16 04:33:08;;;;;;;7.47;2.37;;;;;;;5.51;90.51;101393.56;5089601;28;20205;-72
2023/10/16 04:47:01;;;;;;;11.73;2.40;;;;;;;5.65;91.09;101389.06;5075631;28;20291;-73
2023/10/16 04:49:28;;;;;;;7.20;2.33;;;;;;;5.57;91.59;101387.81;5075749;28;20678;-74
2023/10/16 04:52:06;;;;;;;9.17;2.63;;;;;;;5.58;92.11;101394.78;5075979;28;20202;-74
2023/10/16 05:00:28;;;;;;;7.63;2.23;;;;;;;5.69;92.19;101398.47;5075264;28;20233;-74
2023/10/16 05:03:22;;;;;;;6.33;2.17;;;;;;;5.69;92.07;101393.16;5075726;28;20279;-74
2023/10/16 05:05:56;;;;;;;6.20;2.10;;;;;;;5.71;92.43;101386.78;5075223;28;20278;-73
2023/10/16 05:11:27;;;;;;;8.67;2.37;;;;;;;5.71;92.34;101378.81;5070406;28;20241;-73
2023/10/16 05:14:15;;;;;;;5.13;2.00;;;;;;;5.73;92.26;101386.66;5075214;28;20185;-73
2023/10/16 05:16:49;;;;;;;6.43;1.97;;;;;;;5.73;92.56;101384.84;5075559;28;20244;-73
2023/10/16 05:19:30;;;;;;;5.70;1.90;;;;;;;5.78;92.12;101381.88;5075512;28;20200;-73
2023/10/16 05:22:09;;;;;;;5.47;2.03;;;;;;;5.78;92.22;101382.72;5075294;28;20304;-73
2023/10/16 06:14:35;;;;;;;5.50;2.20;;;;;;;6.04;93.15;101410.03;5074332;28;20218;-73
2023/10/16 06:17:13;;;;;;;11.97;2.30;;;;;;;6.08;92.84;101404.38;5074068;28;20240;-73
2023/10/16 06:19:43;;;;;;;7.57;2.00;;;;;;;6.09;92.71;101407.88;5074013;28;20555;-73
2023/10/16 06:22:13;;;;;;;5.40;2.07;;;;;;;6.08;92.69;101407.03;5073973;28;20213;-73
2023/10/16 06:24:46;;;;;;;8.60;2.10;;;;;;;6.11;92.93;101405.94;5073713;28;20724;-73
2023/10/16 06:27:20;;;;;;;5.97;1.90;;;;;;;6.12;93.43;101407.66;5074143;28;20200;-73
2023/10/16 06:29:53;;;;;;;5.53;1.90;;;;;;;6.14;93.23;101411.03;5074109;28;20280;-74
2023/10/16 06:32:25;;;;;;;5.97;1.90;;;;;;;6.16;93.53;101411.78;5074033;28;20197;-74
2023/10/16 06:35:00;;;;;;;2.80;1.70;;;;;;;6.18;93.21;101416.97;5073918;28;20229;-73
2023/10/16 06:37:31;;;;;;;2.73;1.70;;;;;;;6.20;93.23;101420.38;5073691;28;20593;-75
2023/10/16 06:40:04;;;;;;;5.57;1.80;;;;;;;6.19;93.37;101424.84;5073944;28;20272;-74
2023/10/16 06:42:33;;;;;;;7.03;1.90;;;;;;;6.23;93.38;101421.00;5073932;28;20288;-74
2023/10/16 06:45:07;;;;;;;3.33;1.60;;;;;;;6.25;92.97;101420.84;5073672;28;20236;-74
2023/10/16 06:47:36;;;;;;;7.80;2.00;;;;;;;6.28;93.34;101429.47;5073853;28;20196;-74
2023/10/16 06:50:33;;;;;;;7.00;1.80;;;;;;;6.32;93.40;101432.72;5073760;28;20288;-75
2023/10/16 06:53:00;;;;;;;3.77;1.73;;;;;;;6.34;93.22;101433.44;5073357;28;20556;-72
2023/10/16 06:55:29;;;;;;;5.77;1.93;;;;;;;6.35;93.19;101435.16;5073680;28;20288;-73
2023/10/16 06:57:58;;;;;;;6.23;2.00;;;;;;;6.36;93.69;101435.06;5073414;28;20205;-74
2023/10/16 07:00:27;;;;;;;8.53;2.30;;;;;;;6.38;93.91;101438.44;5073605;28;20309;-74
2023/10/16 07:02:58;;;;;;;5.97;2.00;;;;;;;6.41;94.06;101440.00;5073545;28;20255;-74
2023/10/16 07:05:43;;;;;;;4.63;2.10;;;;;;;6.44;93.89;101442.44;5073461;28;20229;-74
2023/10/16 07:08:16;;;;;;;7.77;2.80;;;;;;;6.45;94.59;101436.16;5073587;28;20189;-74
2023/10/16 07:10:53;;;;;;;6.87;2.80;;;;;;;6.45;95.52;101431.69;5073549;28;20186;-74
2023/10/16 07:13:30;;;;;;;9.50;3.30;;;;;;;6.45;96.89;101437.00;5073508;28;20212;-74
2023/10/16 07:16:00;;;;;;;11.37;3.23;;;;;;;6.45;96.39;101431.69;5073440;28;20279;-74
2023/10/16 07:18:32;;;;;;;13.07;2.83;;;;;;;6.49;96.69;101434.97;5073719;28;20212;-74
2023/10/16 07:21:08;;;;;;;10.80;3.30;;;;;;;6.51;96.82;101435.66;5073300;28;20206;-73
2023/10/16 07:23:39;;;;;;;9.13;2.40;;;;;;;6.54;96.77;101422.16;5072954;28;20209;-73
2023/10/16 07:26:09;;;;;;;7.73;3.43;;;;;;;6.56;97.69;101426.41;5073357;28;20225;-73
2023/10/16 07:28:39;;;;;;;9.00;2.80;;;;;;;6.60;97.26;101425.19;5073278;28;20201;-73
2023/10/16 07:31:10;;;;;;;5.50;2.50;;;;;;;6.67;97.30;101430.03;5073245;28;20190;-72
2023/10/16 07:33:40;;;;;;;5.23;2.20;;;;;;;6.71;97.25;101427.03;5073338;28;20194;-73
2023/10/16 07:36:13;;;;;;;4.73;2.20;;;;;;;6.79;97.95;101429.06;5073177;28;20229;-73
2023/10/16 07:38:42;;;;;;;8.43;2.60;;;;;;;6.83;97.53;101430.53;5073306;28;20190;-73
2023/10/16 07:41:13;;;;;;;5.63;2.47;;;;;;;6.86;97.36;101438.28;5072978;28;20763;-73
2023/10/16 07:43:46;;;;;;;4.53;2.50;;;;;;;6.89;97.74;101435.38;5072914;28;20592;-73
2023/10/16 07:46:27;;;;;;;4.67;2.30;;;;;;;6.92;97.63;101435.97;5072844;28;20236;-73
2023/10/16 07:49:01;;;;;;;5.43;2.20;;;;;;;6.96;97.52;101434.78;5073190;28;20194;-73
2023/10/16 07:51:31;;;;;;;6.30;2.37;;;;;;;6.98;97.32;101434.69;5072829;28;20240;-72
2023/10/16 07:54:00;;;;;;;8.07;2.37;;;;;;;7.04;97.23;101436.84;5073232;28;20224;-73
2023/10/16 07:56:30;;;;;;;5.13;2.20;;;;;;;7.06;97.22;101438.41;5073054;28;20215;-73
2023/10/16 07:59:07;;;;;;;5.33;2.30;;;;;;;7.10;97.56;101444.34;5073040;28;20202;-73
2023/10/16 08:01:41;;;;;;;9.03;2.93;;;;;;;7.11;96.25;101436.25;5073022;28;20280;-73
2023/10/16 08:04:27;;;;;;;5.57;2.10;;;;;;;7.14;96.24;101445.81;5072940;28;20601;-72
2023/10/16 08:07:04;;;;;;;4.60;2.10;;;;;;;7.18;95.94;101436.59;5073042;28;20244;-72
2023/10/16 08:12:20;;;;;;;7.70;3.00;;;;;;;7.28;96.49;101448.22;5076765;28;20223;-73
2023/10/16 08:14:54;;;;;;;6.67;2.80;;;;;;;7.31;96.49;101442.66;5076277;28;20752;-72
2023/10/16 08:17:24;;;;;;;5.20;2.37;;;;;;;7.33;95.38;101454.00;5076675;28;20198;-74
2023/10/16 08:19:54;;;;;;;7.47;2.47;;;;;;;7.38;95.18;101451.00;5076714;28;20189;-73
2023/10/16 08:22:25;;;;;;;8.73;2.70;;;;;;;7.42;95.20;101447.97;5076259;28;20687;-73
2023/10/16 08:25:00;;;;;;;4.37;2.20;;;;;;;7.46;95.56;101446.75;5076978;28;20237;-73
2023/10/16 08:27:47;;;;;;;6.87;2.60;;;;;;;7.51;94.55;101446.38;5076600;28;20189;-72
2023/10/16 08:33:17;;;;;;;5.73;2.40;;;;;;;7.56;93.69;101447.72;5091713;28;20878;-72
2023/10/16 08:35:46;;;;;;;7.83;3.30;;;;;;;7.59;93.72;101447.47;5090883;28;20224;-73
2023/10/16 08:38:20;;;;;;;5.77;2.77;;;;;;;7.61;93.75;101445.50;5091017;28;20309;-73
2023/10/16 08:40:57;;;;;;;9.13;3.50;;;;;;;7.67;94.02;101457.50;5091037;28;20188;-73
2023/10/16 08:43:39;;;;;;;5.90;3.40;;;;;;;7.77;93.80;101458.47;5090902;28;20197;-73
2023/10/16 08:46:11;;;;;;;8.83;3.37;;;;;;;7.85;93.65;101460.47;5090772;28;20311;-72
2023/10/16 08:48:48;;;;;;;9.53;3.20;;;;;;;7.85;93.22;101463.13;5090822;28;20208;-73
2023/10/16 08:51:17;;;;;;;9.10;3.67;;;;;;;7.85;92.88;101458.66;5090685;28;20231;-73
2023/10/16 08:53:48;;;;;;;4.90;2.80;;;;;;;7.88;92.16;101468.22;5090703;28;20266;-73
2023/10/16 08:56:18;;;;;;;6.00;3.77;;;;;;;7.89;92.50;101467.25;5090317;28;20679;-73
2023/10/16 08:58:49;;;;;;;7.17;4.33;;;;;;;7.91;92.66;101468.00;5090336;28;20698;-73
2023/10/16 09:01:20;;;;;;;8.13;4.27;;;;;;;7.91;91.97;101462.66;5090600;28;20271;-73
2023/10/16 09:03:55;;;;;;;5.93;4.10;;;;;;;7.91;92.31;101468.00;5090221;28;20544;-72
2023/10/16 09:06:24;;;;;;;8.17;4.33;;;;;;;7.92;91.51;101467.00;5090239;28;20655;-72
2023/10/16 09:08:54;;;;;;;5.67;4.23;;;;;;;7.95;91.86;101469.41;5090097;28;20748;-73
2023/10/16 09:11:25;;;;;;;9.00;4.80;;;;;;;7.99;91.63;101470.84;5090314;28;20250;-72
2023/10/16 09:13:56;;;;;;;6.00;4.90;;;;;;;8.01;92.04;101468.94;5090370;28;20232;-72
2023/10/16 09:16:31;;;;;;;9.27;5.00;;;;;;;8.04;91.54;101474.88;5090255;28;20208;-72
2023/10/16 09:19:06;;;;;;;10.27;4.87;;;;;;;8.08;91.50;101480.78;5090271;28;20238;-72
2023/10/16 09:21:38;;;;;;;7.03;4.80;;;;;;;8.08;91.32;101480.78;5090150;28;20203;-72
2023/10/16 09:24:08;;;;;;;9.07;5.07;;;;;;;8.09;91.54;101485.13;5089777;28;20698;-72
2023/10/16 09:26:44;;;;;;;10.50;4.73;;;;;;;8.08;91.18;101478.94;5090073;28;20205;-73
2023/10/16 09:29:19;;;;;;;7.47;4.60;;;;;;;8.12;91.70;101476.88;5089760;28;20643;-73
2023/10/16 09:31:49;;;;;;;8.33;3.57;;;;;;;8.11;91.59;101484.06;5089667;28;20235;-72
2023/10/16 09:34:25;;;;;;;8.63;4.47;;;;;;;8.12;91.81;101482.22;5089631;28;20292;-72
2023/10/16 09:39:39;;;;;;;8.10;4.50;;;;;;;8.19;92.72;101483.41;5089372;28;20232;-73
2023/10/16 09:42:11;;;;;;;7.43;4.10;;;;;;;8.25;93.02;101488.25;5089413;28;20552;-73
2023/10/16 09:44:41;;;;;;;6.13;3.70;;;;;;;8.28;92.13;101488.03;5075655;28;20240;-73
2023/10/16 09:47:26;;;;;;;10.57;6.23;;;;;;;8.34;92.36;101482.16;5076179;28;20213;-73
2023/10/16 09:49:59;;;;;;;8.77;4.93;;;;;;;8.40;93.14;101481.66;5075847;28;20629;-74
2023/10/16 09:52:32;;;;;;;7.03;4.03;;;;;;;8.47;94.70;101480.16;5075716;28;20245;-74
2023/10/16 09:55:05;;;;;;;9.73;4.93;;;;;;;8.49;94.25;101478.19;5076039;28;20573;-73
2023/10/16 09:57:38;;;;;;;7.60;5.00;;;;;;;8.54;94.14;101476.00;5075799;28;20643;-73
2023/10/16 10:00:23;;;;;;;11.20;4.80;;;;;;;8.58;93.69;101473.91;5076059;28;20201;-73
2023/10/16 10:02:52;;;;;;;7.33;5.10;;;;;;;8.63;94.35;101472.53;5075998;28;20186;-72
2023/10/16 10:05:34;;;;;;;5.87;4.57;;;;;;;8.67;94.53;101473.13;5075516;28;20260;-73
2023/10/16 10:08:15;;;;;;;9.47;5.10;;;;;;;8.69;93.72;101468.53;5075869;28;20271;-73
2023/10/16 10:14:09;;;;;;;7.83;5.47;;;;;;;8.78;93.02;101469.56;5075624;28;20209;-72
2023/10/16 10:16:40;;;;;;;7.70;5.47;;;;;;;8.90;92.63;101466.69;5075450;28;20611;-72
2023/10/16 10:19:24;;;;;;;9.20;6.20;;;;;;;8.99;91.71;101467.72;5074420;28;20221;-72
2023/10/16 10:22:05;;;;;;;9.37;6.60;;;;;;;9.00;90.32;101464.06;5074653;28;20193;-72
2023/10/16 10:24:35;;;;;;;7.43;6.73;;;;;;;9.00;89.12;101474.75;5074573;28;20260;-72
2023/10/16 10:27:05;;;;;;;8.23;6.87;;;;;;;9.10;89.12;101470.31;5074420;28;20686;-72
2023/10/16 10:29:34;;;;;;;10.30;7.43;;;;;;;9.20;88.93;101471.19;5075099;28;20205;-72
2023/10/16 10:32:12;;;;;;;9.13;7.13;;;;;;;9.28;86.82;101471.34;5074634;28;20729;-72
2023/10/16 10:34:43;;;;;;;9.50;7.13;;;;;;;9.32;87.53;101464.78;5074721;28;20240;-72
2023/10/16 10:37:47;;;;;;;6.37;5.30;;;;;;;9.30;87.23;101464.06;5074546;28;20213;-72
2023/10/16 10:40:21;;;;;;;6.90;6.00;;;;;;;9.33;87.73;101457.59;5071951;28;20288;-72
2023/10/16 10:42:55;;;;;;;8.87;5.97;;;;;;;9.27;86.29;101451.00;5074882;28;20185;-72
2023/10/16 10:45:33;;;;;;;10.20;6.13;;;;;;;9.27;86.51;101461.69;5074521;28;20230;-71
2023/10/16 10:48:09;;;;;;;8.30;6.13;;;;;;;9.28;87.41;101452.66;5074664;28;20185;-72
2023/10/16 10:50:39;;;;;;;6.90;5.53;;;;;;;9.28;86.45;101458.00;5074521;28;20200;-72
2023/10/16 10:53:16;;;;;;;6.13;4.33;;;;;;;9.28;86.36;101452.66;5074545;28;20316;-73
2023/10/16 10:55:58;;;;;;;6.70;3.67;;;;;;;9.29;86.15;101458.84;5073617;28;20719;-73
2023/10/16 10:58:31;;;;;;;11.37;3.50;;;;;;;9.27;85.61;101455.47;5074891;28;20232;-73
2023/10/16 11:01:16;;;;;;;6.53;3.00;;;;;;;9.28;85.46;101457.19;5074895;28;20288;-73
2023/10/16 11:03:46;;;;;;;5.50;2.27;;;;;;;9.28;85.18;101452.66;5075380;28;20276;-73
2023/10/16 11:06:19;;;;;;;5.73;2.43;;;;;;;9.36;85.87;101457.34;5074591;28;20231;-73
2023/10/16 11:08:51;;;;;;;5.60;2.30;;;;;;;9.71;84.96;101443.50;5074642;28;20651;-73
2023/10/16 11:11:20;;;;;;;7.83;3.87;;;;;;;9.90;84.10;101438.19;5074628;28;20281;-73
2023/10/16 11:13:49;;;;;;;4.93;2.87;;;;;;;9.98;82.16;101436.53;5074611;28;20274;-72
2023/10/16 11:16:19;;;;;;;3.77;2.53;;;;;;;10.09;81.80;101432.88;5074201;28;20321;-73
2023/10/16 11:18:58;;;;;;;4.43;2.20;;;;;;;10.14;81.46;101420.78;5075397;28;20186;-73
2023/10/16 11:21:29;;;;;;;4.57;2.20;;;;;;;10.34;80.56;101434.16;5074494;28;20280;-73
2023/10/16 11:24:00;;;;;;;5.83;2.80;;;;;;;10.56;78.49;101426.66;5074034;28;20629;-73
2023/10/16 11:26:29;;;;;;;6.33;3.10;;;;;;;10.60;77.82;101428.06;5074304;28;20280;-73
2023/10/16 11:29:00;;;;;;;4.37;2.47;;;;;;;10.53;79.46;101426.97;5074216;28;20282;-73
2023/10/16 11:31:29;;;;;;;3.60;1.53;;;;;;;10.39;77.35;101432.75;5073703;28;20600;-73
2023/10/16 11:34:02;;;;;;;3.80;1.80;;;;;;;10.33;78.24;101445.84;5073987;28;20574;-73
2023/10/16 11:36:34;;;;;;;5.60;3.53;;;;;;;10.24;81.02;101447.53;5074214;28;20190;-74
2023/10/16 11:39:19;;;;;;;7.03;4.27;;;;;;;10.07;85.03;101453.53;5073765;28;20560;-74
2023/10/16 11:41:49;;;;;;;11.57;6.70;;;;;;;10.07;86.87;101461.56;5074271;28;20212;-72
2023/10/16 11:44:19;;;;;;;8.63;5.57;;;;;;;10.00;87.80;101449.78;5073927;28;20229;-73
2023/10/16 11:46:52;;;;;;;5.23;3.23;;;;;;;9.93;87.97;101448.63;5073668;28;20708;-74
2023/10/16 11:49:31;;;;;;;4.73;2.70;;;;;;;9.89;88.28;101449.88;5073950;28;20194;-74
2023/10/16 11:52:19;;;;;;;4.27;2.60;;;;;;;9.86;88.74;101453.69;5073938;28;20189;-73
2023/10/16 11:54:53;;;;;;;3.53;1.90;;;;;;;9.86;89.42;101452.84;5073719;28;20237;-73
2023/10/16 11:57:23;;;;;;;5.00;2.10;;;;;;;9.88;90.71;101450.88;5073887;28;20531;-73
2023/10/16 11:59:52;;;;;;;4.67;2.40;;;;;;;9.88;91.84;101440.16;5073787;28;20285;-74
2023/10/16 12:02:22;;;;;;;5.47;2.37;;;;;;;9.87;92.22;101451.84;5073732;28;20244;-73
2023/10/16 12:04:51;;;;;;;3.73;2.33;;;;;;;9.89;92.04;101447.22;5073635;28;20225;-73
2023/10/16 12:07:20;;;;;;;3.70;2.30;;;;;;;9.88;92.38;101451.72;5073137;28;20619;-73
2023/10/16 12:09:51;;;;;;;4.57;2.10;;;;;;;9.83;90.91;101447.78;5074004;28;20288;-73
2023/10/16 12:12:20;;;;;;;3.17;1.80;;;;;;;9.85;91.26;101441.28;5073659;28;20190;-73
2023/10/16 12:14:50;;;;;;;2.90;1.90;;;;;;;9.88;92.04;101442.84;5073414;28;20229;-74
2023/10/16 12:17:20;;;;;;;2.83;1.63;;;;;;;9.93;91.81;101441.44;5073827;28;20208;-73
2023/10/16 12:19:51;;;;;;;3.50;1.97;;;;;;;10.01;91.63;101438.91;5073674;28;20209;-73
2023/10/16 12:22:21;;;;;;;2.63;1.70;;;;;;;10.12;90.39;101433.44;5073593;28;20193;-73
2023/10/16 12:24:51;;;;;;;6.63;1.63;;;;;;;10.28;89.55;101440.91;5073409;28;20770;-73
2023/10/16 12:27:21;;;;;;;4.97;1.93;;;;;;;10.36;90.13;101437.53;5073359;28;20201;-72
2023/10/16 12:29:49;;;;;;;3.27;1.40;;;;;;;10.48;88.60;101431.06;5073362;28;20300;-72
2023/10/16 12:32:18;;;;;;;4.47;1.70;;;;;;;10.74;86.74;101440.16;5072738;28;20217;-72
2023/10/16 12:34:49;;;;;;;2.87;1.80;;;;;;;11.03;86.64;101435.56;5073177;28;20233;-72
2023/10/16 12:37:22;;;;;;;5.43;1.97;;;;;;;11.12;84.79;101439.22;5073395;28;20243;-72
2023/10/16 12:39:52;;;;;;;5.80;2.10;;;;;;;11.19;83.53;101429.59;5073022;28;20197;-73
2023/10/16 12:42:21;;;;;;;3.00;2.10;;;;;;;11.12;83.88;101428.50;5073253;28;20574;-73
2023/10/16 12:44:50;;;;;;;4.67;2.10;;;;;;;11.23;84.33;101422.09;5073234;28;20225;-72
2023/10/16 12:47:19;;;;;;;4.20;2.30;;;;;;;11.29;82.83;101430.41;5072953;28;20201;-72
2023/10/16 12:50:08;;;;;;;3.73;2.53;;;;;;;11.40;83.00;101422.16;5073683;28;20224;-73
2023/10/16 12:52:38;;;;;;;3.63;2.03;;;;;;;11.36;81.61;101415.41;5072913;28;20248;-73
2023/10/16 12:55:09;;;;;;;4.27;2.50;;;;;;;11.38;80.99;101413.41;5073041;28;20237;-73
2023/10/16 12:57:39;;;;;;;4.60;2.30;;;;;;;11.36;81.40;101418.09;5072907;28;20193;-73
2023/10/16 13:00:15;;;;;;;4.70;2.30;;;;;;;11.29;80.87;101419.66;5073143;28;20210;-72
2023/10/16 13:02:45;;;;;;;4.30;2.17;;;;;;;11.27;80.56;101427.00;5072983;28;20558;-73
2023/10/16 13:05:14;;;;;;;4.43;2.10;;;;;;;11.14;81.05;101421.97;5073034;28;20275;-73
2023/10/16 13:07:43;;;;;;;2.53;1.77;;;;;;;11.11;79.47;101426.78;5072786;28;20675;-73
2023/10/16 13:10:21;;;;;;;3.93;2.40;;;;;;;11.20;81.12;101426.75;5073361;28;20197;-72
2023/10/16 13:12:49;;;;;;;4.10;2.10;;;;;;;11.23;80.54;101417.59;5073075;28;20289;-73
2023/10/16 13:15:24;;;;;;;5.83;2.50;;;;;;;11.47;80.26;101415.19;5072808;28;20233;-72
2023/10/16 13:17:53;;;;;;;5.47;2.77;;;;;;;11.74;79.11;101416.19;5072994;28;20561;-72
2023/10/16 13:20:27;;;;;;;4.57;2.77;;;;;;;11.67;75.87;101415.94;5076654;28;20214;-72
2023/10/16 13:22:57;;;;;;;3.47;2.50;;;;;;;11.78;77.65;101421.09;5076756;28;20208;-72
2023/10/16 13:25:31;;;;;;;5.80;3.13;;;;;;;11.74;76.71;101421.56;5076576;28;20222;-73